Time;durP1;ratioP1;P1;durP2;ratioP2;P2;SDS_P1;SDS_P2;PMS_P1;PMS_P2;Temp;Humidity;BMP_temperature;BMP_pressure;BME280_temperature;BME280_humidity;BME280_pressure;Samples;Min_cycle;Max_cycle;Signal;HPM_P1;HPM_P2
2022/09/02 00:00:43;;;;;;;21.25;12.93;;;;;;;8.82;100.00;99952.57;1672225;84;21655;-63
2022/09/02 00:03:10;;;;;;;21.65;12.78;;;;;;;8.77;100.00;99952.50;1652613;85;21115;-63
2022/09/02 00:05:37;;;;;;;21.48;13.32;;;;;;;8.76;100.00;99946.78;1662085;85;21086;-63
2022/09/02 00:08:04;;;;;;;22.10;13.58;;;;;;;8.74;100.00;99946.23;1678282;85;21030;-63
2022/09/02 00:10:33;;;;;;;25.10;12.90;;;;;;;8.75;100.00;99950.59;1672779;85;21069;-63
2022/09/02 00:13:00;;;;;;;22.40;13.93;;;;;;;8.75;100.00;99951.95;1668740;85;21576;-63
2022/09/02 00:15:26;;;;;;;24.87;14.30;;;;;;;8.70;100.00;99951.88;1672654;86;21097;-63
2022/09/02 00:17:53;;;;;;;20.27;13.03;;;;;;;8.69;100.00;99956.48;1672338;85;21097;-64
2022/09/02 00:20:20;;;;;;;22.10;12.78;;;;;;;8.72;100.00;99957.86;1675166;85;21538;-63
2022/09/02 00:22:46;;;;;;;22.70;13.38;;;;;;;8.74;100.00;99962.52;1644068;85;20967;-63
2022/09/02 00:25:12;;;;;;;;;;;;;;;8.73;100.00;99961.69;1695563;84;21050;-63
2022/09/02 00:27:39;;;;;;;22.20;13.65;;;;;;;8.69;100.00;99963.27;1708211;83;20601;-64
2022/09/02 00:30:06;;;;;;;22.55;12.98;;;;;;;8.57;100.00;99966.67;1684299;83;21078;-63
2022/09/02 00:32:33;;;;;;;23.47;13.55;;;;;;;8.55;100.00;99970.69;1640058;87;21005;-63
2022/09/02 00:35:00;;;;;;;;;;;;;;;8.57;100.00;99976.17;1672574;84;21087;-64
2022/09/02 00:37:28;;;;;;;22.10;12.43;;;;;;;8.59;100.00;99969.94;1655098;86;20987;-63
2022/09/02 00:39:54;;;;;;;;;;;;;;;8.56;100.00;99975.05;1633798;85;21143;-63
2022/09/02 00:42:21;;;;;;;24.35;14.35;;;;;;;8.53;100.00;99972.84;1649840;86;20146;-63
2022/09/02 00:44:48;;;;;;;25.08;14.33;;;;;;;8.40;100.00;99977.56;1637292;86;21137;-63
2022/09/02 00:47:15;;;;;;;25.27;13.90;;;;;;;8.39;100.00;99980.02;1618570;86;21065;-63
2022/09/02 00:49:46;;;;;;;25.60;14.78;;;;;;;8.40;100.00;99981.63;1641950;87;21118;-63
2022/09/02 00:52:22;;;;;;;19.52;13.08;;;;;;;8.46;100.00;99987.43;1639863;87;21359;-63
2022/09/02 00:54:53;;;;;;;20.77;13.22;;;;;;;8.53;100.00;99990.48;1642367;86;21084;-62
2022/09/02 00:57:22;;;;;;;23.98;14.20;;;;;;;8.60;100.00;99996.01;1646693;86;21076;-63
2022/09/02 01:03:41;;;;;;;20.93;14.10;;;;;;;8.62;100.00;99993.02;1818044;78;22861;-64
2022/09/02 01:06:10;;;;;;;;;;;;;;;8.56;100.00;99994.05;1764169;80;21085;-64
2022/09/02 01:08:38;;;;;;;22.35;13.10;;;;;;;8.59;100.00;99998.43;1762111;81;20130;-64
2022/09/02 01:11:05;;;;;;;22.10;13.32;;;;;;;8.59;100.00;99994.36;1761433;80;21603;-64
2022/09/02 01:13:36;;;;;;;21.97;13.40;;;;;;;8.56;100.00;100000.30;1761466;80;21014;-64
2022/09/02 01:16:28;;;;;;;22.70;14.55;;;;;;;8.49;100.00;100003.73;1761017;80;21054;-64
2022/09/02 01:18:57;;;;;;;25.88;13.30;;;;;;;8.43;100.00;100001.47;1763824;81;20978;-61
2022/09/02 01:21:24;;;;;;;23.45;12.85;;;;;;;8.40;100.00;99999.80;1762200;80;21612;-61
2022/09/02 01:23:50;;;;;;;25.30;14.65;;;;;;;8.37;100.00;100002.48;1763511;80;21014;-61
2022/09/02 01:26:17;;;;;;;24.67;13.38;;;;;;;8.36;100.00;100006.26;1734872;80;21053;-62
2022/09/02 01:28:44;;;;;;;25.27;13.70;;;;;;;8.32;100.00;100004.32;1746167;81;21581;-62
2022/09/02 01:31:10;;;;;;;25.17;14.00;;;;;;;8.22;100.00;100001.44;1762942;80;21085;-61
2022/09/02 01:33:37;;;;;;;26.90;13.60;;;;;;;8.13;100.00;100008.34;1721099;82;20974;-61
2022/09/02 01:36:05;;;;;;;20.27;13.32;;;;;;;8.06;100.00;100010.41;1751683;81;21148;-60
2022/09/02 01:38:31;;;;;;;22.62;13.03;;;;;;;8.05;100.00;100012.30;1710756;81;21045;-61
2022/09/02 01:40:58;;;;;;;25.72;13.62;;;;;;;8.02;100.00;100007.37;1754692;81;21576;-62
2022/09/02 01:43:26;;;;;;;25.92;13.45;;;;;;;7.98;100.00;100008.94;1761490;80;21053;-61
2022/09/02 01:45:55;;;;;;;22.58;14.00;;;;;;;7.91;100.00;100013.70;1762073;80;21070;-62
2022/09/02 01:48:22;;;;;;;26.50;14.10;;;;;;;7.83;100.00;100014.94;1761080;81;21054;-62
2022/09/02 01:50:54;;;;;;;22.62;14.03;;;;;;;7.79;100.00;100016.52;1761902;80;21085;-61
2022/09/02 01:53:21;;;;;;;25.52;13.60;;;;;;;7.79;100.00;100020.59;1759790;80;21097;-63
2022/09/02 01:55:47;;;;;;;23.90;13.85;;;;;;;7.79;100.00;100021.94;1761428;80;21885;-64
2022/09/02 01:58:14;;;;;;;27.95;18.30;;;;;;;7.79;100.00;100019.77;1752371;81;21070;-64
2022/09/02 02:00:41;;;;;;;29.05;17.90;;;;;;;7.75;100.00;100029.45;1745724;80;21101;-64
2022/09/02 02:03:07;;;;;;;27.77;15.53;;;;;;;7.73;100.00;100035.62;1752995;81;21069;-63
2022/09/02 02:05:35;;;;;;;26.55;14.87;;;;;;;7.69;100.00;100028.52;1759515;80;21054;-63
2022/09/02 02:08:03;;;;;;;32.50;14.83;;;;;;;7.70;100.00;100034.23;1757096;81;21070;-63
2022/09/02 02:10:29;;;;;;;24.65;13.58;;;;;;;7.75;100.00;100043.82;1747575;80;21089;-63
2022/09/02 02:12:56;;;;;;;26.40;14.28;;;;;;;7.80;100.00;100039.00;1758490;80;21564;-63
2022/09/02 02:15:23;;;;;;;23.50;13.30;;;;;;;7.81;100.00;100042.00;1758047;80;21133;-64
2022/09/02 02:17:50;;;;;;;28.00;14.87;;;;;;;7.77;100.00;100040.85;1755064;81;21125;-63
2022/09/02 02:20:17;;;;;;;;;;;;;;;7.79;100.00;100040.09;1755619;80;21120;-63
2022/09/02 02:22:43;;;;;;;29.43;12.90;;;;;;;7.85;100.00;100048.58;1759171;81;20122;-64
2022/09/02 02:25:10;;;;;;;23.77;13.35;;;;;;;7.85;100.00;100041.80;1758458;80;21090;-63
2022/09/02 02:27:39;;;;;;;26.77;14.28;;;;;;;7.86;100.00;100045.64;1757826;81;21573;-64
2022/09/02 02:30:07;;;;;;;24.02;14.95;;;;;;;7.85;100.00;100048.58;1750625;80;21089;-63
2022/09/02 02:32:34;;;;;;;27.10;15.43;;;;;;;7.82;100.00;100045.02;1759533;81;21105;-64
2022/09/02 02:35:02;;;;;;;26.85;15.75;;;;;;;7.84;100.00;100046.40;1760153;80;21081;-63
2022/09/02 02:37:29;;;;;;;31.77;16.90;;;;;;;7.89;100.00;100044.31;1749787;80;21533;-63
2022/09/02 02:39:56;;;;;;;28.92;15.80;;;;;;;7.93;100.00;100046.30;1725110;82;21454;-63
2022/09/02 02:42:23;;;;;;;30.70;18.15;;;;;;;7.93;100.00;100039.52;1757519;81;21487;-63
2022/09/02 02:44:49;;;;;;;35.58;18.90;;;;;;;7.88;100.00;100042.66;1759709;80;20995;-63
2022/09/02 02:47:16;;;;;;;31.00;17.10;;;;;;;7.84;100.00;100046.92;1745634;80;21501;-63
2022/09/02 02:49:43;;;;;;;;;;;;;;;7.83;100.00;100040.68;1761263;80;21533;-64
2022/09/02 02:52:10;;;;;;;29.10;15.80;;;;;;;7.84;100.00;100042.34;1758838;81;20138;-63
2022/09/02 02:54:37;;;;;;;31.42;18.37;;;;;;;7.81;100.00;100052.31;1758199;80;21058;-63
2022/09/02 02:57:05;;;;;;;30.05;18.00;;;;;;;7.76;100.00;100049.51;1752777;80;21348;-63
2022/09/02 02:59:31;;;;;;;36.60;17.65;;;;;;;7.69;100.00;100054.27;1757916;80;21041;-62
2022/09/02 03:01:58;;;;;;;30.40;18.57;;;;;;;7.65;100.00;100046.89;1732661;81;21079;-63
2022/09/02 03:04:26;;;;;;;41.63;20.32;;;;;;;7.64;100.00;100058.80;1757179;81;21034;-62
2022/09/02 03:06:53;;;;;;;46.65;24.10;;;;;;;7.66;100.00;100060.71;1753570;80;21846;-62
2022/09/02 03:09:19;;;;;;;36.35;21.42;;;;;;;7.68;100.00;100061.30;1752961;81;21062;-62
2022/09/02 03:11:47;;;;;;;36.77;21.82;;;;;;;7.66;100.00;100066.12;1759008;80;21160;-62
2022/09/02 03:14:14;;;;;;;38.58;20.00;;;;;;;7.59;100.00;100062.75;1752536;81;21565;-63
2022/09/02 03:16:42;;;;;;;35.38;20.55;;;;;;;7.57;100.00;100064.90;1748865;80;21059;-62
2022/09/02 03:19:08;;;;;;;;;;;;;;;7.59;100.00;100063.58;1761835;81;21105;-62
2022/09/02 03:21:35;;;;;;;41.88;22.40;;;;;;;7.59;100.00;100071.70;1757924;80;20160;-62
2022/09/02 03:24:02;;;;;;;41.02;23.65;;;;;;;7.55;100.00;100073.78;1752522;80;21842;-61
2022/09/02 03:26:30;;;;;;;48.17;24.67;;;;;;;7.55;100.00;100075.14;1760357;80;21034;-62
2022/09/02 03:28:57;;;;;;;41.55;25.27;;;;;;;7.53;100.00;100082.70;1756636;81;21009;-63
2022/09/02 03:31:24;;;;;;;41.92;23.77;;;;;;;7.49;100.00;100089.97;1760435;80;21078;-62
2022/09/02 03:33:52;;;;;;;33.85;21.10;;;;;;;7.54;100.00;100089.25;1759284;81;21002;-62
2022/09/02 03:36:26;;;;;;;35.00;18.32;;;;;;;7.61;100.00;100089.09;1757246;80;21050;-62
2022/09/02 03:38:53;;;;;;;33.35;18.32;;;;;;;7.65;100.00;100091.05;1759103;81;21030;-62
2022/09/02 03:41:19;;;;;;;28.55;17.30;;;;;;;7.66;100.00;100091.87;1758319;80;21157;-62
2022/09/02 03:43:47;;;;;;;30.62;17.45;;;;;;;7.63;100.00;100100.48;1756970;80;21052;-62
2022/09/02 03:46:14;;;;;;;27.50;15.38;;;;;;;7.60;100.00;100103.69;1758880;80;21868;-62
2022/09/02 03:48:41;;;;;;;29.95;16.77;;;;;;;7.59;100.00;100108.28;1758576;81;21085;-62
2022/09/02 03:51:09;;;;;;;30.32;15.45;;;;;;;7.63;100.00;100112.69;1731532;81;21135;-62
2022/09/02 03:53:37;;;;;;;25.62;16.05;;;;;;;7.66;100.00;100117.61;1756960;81;21062;-62
2022/09/02 03:56:06;;;;;;;27.50;15.78;;;;;;;7.67;100.00;100120.62;1748628;80;21092;-63
2022/09/02 03:58:33;;;;;;;26.90;15.83;;;;;;;7.66;100.00;100114.38;1757859;81;21033;-63
2022/09/02 04:01:00;;;;;;;27.75;15.10;;;;;;;7.67;100.00;100122.80;1757417;80;22074;-61
2022/09/02 04:03:27;;;;;;;;;;;;;;;7.72;100.00;100127.50;1749010;81;21105;-62
2022/09/02 04:05:53;;;;;;;28.60;16.12;;;;;;;7.81;100.00;100126.02;1713172;83;20136;-62
2022/09/02 04:08:23;;;;;;;32.48;19.70;;;;;;;7.85;100.00;100122.59;1748905;81;21104;-62
2022/09/02 04:10:51;;;;;;;33.60;20.12;;;;;;;7.93;100.00;100119.48;1757740;80;21609;-62
2022/09/02 04:13:18;;;;;;;32.40;19.17;;;;;;;7.97;100.00;100126.03;1756013;80;21074;-62
2022/09/02 04:15:46;;;;;;;36.08;19.10;;;;;;;8.03;100.00;100124.78;1724992;81;21133;-62
2022/09/02 04:18:16;;;;;;;34.18;18.82;;;;;;;8.13;100.00;100124.41;1735625;81;21078;-62
2022/09/02 04:20:43;;;;;;;32.20;18.48;;;;;;;8.28;100.00;100130.62;1757086;81;21042;-62
2022/09/02 04:23:10;;;;;;;32.75;18.82;;;;;;;8.42;100.00;100131.96;1760746;80;21011;-62
2022/09/02 04:25:42;;;;;;;34.48;18.95;;;;;;;8.54;100.00;100135.94;1760279;80;21022;-62
2022/09/02 04:28:09;;;;;;;35.17;19.48;;;;;;;8.63;100.00;100141.22;1759692;81;22049;-62
2022/09/02 04:30:40;;;;;;;37.20;19.45;;;;;;;8.70;100.00;100137.27;1759371;80;21015;-62
2022/09/02 04:33:07;;;;;;;37.83;20.02;;;;;;;8.85;100.00;100139.38;1742514;80;21050;-62
2022/09/02 04:35:34;;;;;;;32.65;18.55;;;;;;;9.12;100.00;100142.98;1750868;80;21066;-62
2022/09/02 04:38:01;;;;;;;36.95;19.02;;;;;;;9.37;100.00;100143.30;1699655;81;21703;-62
2022/09/02 04:40:30;;;;;;;41.73;19.60;;;;;;;9.56;100.00;100148.41;1732257;81;21149;-62
2022/09/02 04:42:56;;;;;;;36.33;19.92;;;;;;;9.72;100.00;100147.48;1743335;80;21085;-62
2022/09/02 04:45:23;;;;;;;;;;;;;;;9.83;100.00;100141.90;1743643;80;21853;-63
2022/09/02 04:47:49;;;;;;;32.45;17.40;;;;;;;9.88;100.00;100143.85;1743361;80;20622;-62
2022/09/02 04:50:16;;;;;;;34.53;18.57;;;;;;;9.85;100.00;100150.61;1759315;80;21113;-62
2022/09/02 04:52:44;;;;;;;32.67;17.45;;;;;;;9.97;100.00;100146.38;1754625;80;21089;-62
2022/09/02 04:55:12;;;;;;;37.55;18.73;;;;;;;10.14;100.00;100149.83;1758438;80;21050;-62
2022/09/02 04:57:38;;;;;;;40.70;21.40;;;;;;;10.22;100.00;100149.36;1758842;80;21103;-62
2022/09/02 05:00:06;;;;;;;38.13;22.75;;;;;;;10.28;100.00;100148.31;1724771;80;21058;-62
2022/09/02 05:02:35;;;;;;;48.60;26.90;;;;;;;10.38;100.00;100151.11;1718820;82;21062;-62
2022/09/02 05:05:01;;;;;;;;;;;;;;;10.56;100.00;100149.09;1702862;82;21649;-62
2022/09/02 05:07:29;;;;;;;;;;;;;;;10.75;100.00;100158.45;1753591;81;20141;-62
2022/09/02 05:09:59;;;;;;;43.00;22.93;;;;;;;10.95;100.00;100151.76;1750797;80;20461;-62
2022/09/02 05:12:26;;;;;;;64.80;37.63;;;;;;;11.11;100.00;100152.67;1724548;82;21208;-63
2022/09/02 05:14:58;;;;;;;67.20;40.73;;;;;;;11.26;100.00;100150.85;1750479;80;21536;-61
2022/09/02 05:17:25;;;;;;;69.55;40.03;;;;;;;11.45;100.00;100146.55;1725946;82;21054;-61
2022/09/02 05:19:53;;;;;;;72.35;41.00;;;;;;;11.71;100.00;100157.02;1749767;80;21032;-63
2022/09/02 05:22:20;;;;;;;72.05;39.35;;;;;;;11.99;100.00;100150.25;1746586;82;21404;-62
2022/09/02 05:24:47;;;;;;;68.22;42.38;;;;;;;12.25;100.00;100149.73;1750331;80;21030;-62
2022/09/02 05:27:15;;;;;;;74.77;42.85;;;;;;;12.54;100.00;100154.89;1745246;81;20992;-63
2022/09/02 05:29:42;;;;;;;70.97;43.92;;;;;;;12.83;100.00;100142.30;1752813;80;20976;-61
2022/09/02 05:32:10;;;;;;;76.50;46.58;;;;;;;13.07;100.00;100140.34;1727524;82;21501;-63
2022/09/02 05:34:38;;;;;;;70.30;40.70;;;;;;;13.18;100.00;100148.23;1752416;80;21038;-63
2022/09/02 05:37:05;;;;;;;80.10;48.50;;;;;;;13.37;100.00;100148.44;1748380;80;21023;-63
2022/09/02 05:39:33;;;;;;;88.75;54.23;;;;;;;13.62;100.00;100148.87;1751504;82;21628;-63
2022/09/02 05:42:01;;;;;;;83.22;51.48;;;;;;;13.84;100.00;100147.38;1727802;81;21054;-62
2022/09/02 05:44:30;;;;;;;84.85;51.77;;;;;;;14.01;100.00;100144.80;1749323;81;21892;-63
2022/09/02 05:46:56;;;;;;;88.47;51.45;;;;;;;14.12;100.00;100145.82;1750218;80;21114;-63
2022/09/02 05:49:23;;;;;;;84.80;53.58;;;;;;;14.23;100.00;100146.56;1750172;82;22401;-64
2022/09/02 05:51:57;;;;;;;88.15;52.95;;;;;;;14.51;100.00;100141.70;1749650;80;21086;-64
2022/09/02 05:54:33;;;;;;;;;;;;;;;14.79;100.00;100146.91;1747010;82;21549;-63
2022/09/02 05:57:07;;;;;;;88.33;53.10;;;;;;;14.97;100.00;100147.55;1731257;80;20146;-63
2022/09/02 05:59:35;;;;;;;97.88;58.73;;;;;;;15.09;100.00;100146.57;1750572;81;21120;-64
2022/09/02 06:02:02;;;;;;;95.25;60.25;;;;;;;15.28;100.00;100150.20;1748836;82;21031;-63
2022/09/02 06:04:30;;;;;;;84.85;56.63;;;;;;;15.49;100.00;100152.16;1719679;82;21390;-65
2022/09/02 06:06:58;;;;;;;95.50;60.00;;;;;;;15.65;100.00;100150.87;1743808;80;21086;-63
2022/09/02 06:09:26;;;;;;;94.22;58.50;;;;;;;15.71;100.00;100151.60;1746462;81;21044;-63
2022/09/02 06:11:53;;;;;;;87.75;56.55;;;;;;;15.90;100.00;100155.19;1717040;82;21045;-65
2022/09/02 06:14:23;;;;;;;96.55;61.02;;;;;;;16.10;100.00;100158.17;1741566;82;21066;-66
2022/09/02 06:16:53;;;;;;;90.75;56.45;;;;;;;16.23;100.00;100160.98;1742829;80;21106;-66
2022/09/02 06:19:24;;;;;;;87.17;55.55;;;;;;;16.35;100.00;100166.02;1746151;81;21035;-65
2022/09/02 06:21:52;;;;;;;88.10;51.05;;;;;;;16.41;100.00;100162.06;1750530;80;21042;-65
2022/09/02 06:24:20;;;;;;;78.02;47.48;;;;;;;16.42;100.00;100163.16;1749421;81;21090;-64
2022/09/02 06:26:48;;;;;;;71.07;42.98;;;;;;;16.48;100.00;100160.30;1686529;83;21080;-65
2022/09/02 06:29:16;;;;;;;73.35;44.98;;;;;;;16.55;100.00;100164.30;1713262;82;21028;-66
2022/09/02 06:31:44;;;;;;;74.17;45.10;;;;;;;16.51;100.00;100163.27;1686992;83;21074;-67
2022/09/02 06:34:12;;;;;;;59.63;38.55;;;;;;;16.55;100.00;100165.67;1679239;84;21012;-67
2022/09/02 06:36:40;;;;;;;46.92;29.72;;;;;;;16.69;100.00;100160.24;1721259;82;21003;-65
2022/09/02 06:39:06;;;;;;;37.65;24.20;;;;;;;16.97;100.00;100161.14;1736216;81;21019;-66
2022/09/02 06:41:33;;;;;;;32.48;20.43;;;;;;;17.10;100.00;100166.65;1718385;82;21023;-67
2022/09/02 06:44:03;;;;;;;28.20;19.10;;;;;;;17.17;100.00;100158.81;1733450;82;21568;-66
2022/09/02 06:46:35;;;;;;;25.30;18.00;;;;;;;17.30;100.00;100154.41;1729854;81;21637;-67
2022/09/02 06:49:04;;;;;;;35.73;21.60;;;;;;;17.43;100.00;100155.78;1745464;81;21038;-67
2022/09/02 06:51:34;;;;;;;23.77;14.55;;;;;;;17.53;100.00;100160.28;1747490;80;21557;-66
2022/09/02 06:54:02;;;;;;;17.00;10.80;;;;;;;17.66;100.00;100157.28;1717558;82;21042;-67
2022/09/02 06:56:30;;;;;;;15.72;9.88;;;;;;;17.84;100.00;100168.16;1750289;80;21067;-68
2022/09/02 06:58:57;;;;;;;26.85;17.65;;;;;;;17.96;100.00;100170.95;1723773;81;21082;-67
2022/09/02 07:01:28;;;;;;;15.65;10.15;;;;;;;18.01;100.00;100168.06;1722215;82;21130;-67
2022/09/02 07:06:44;;;;;;;;;;;;;;;18.36;100.00;100175.48;1711561;82;21090;-68
2022/09/02 07:09:16;;;;;;;13.20;7.47;;;;;;;18.46;100.00;100172.48;1748993;81;20180;-68
2022/09/02 07:11:47;;;;;;;13.48;7.87;;;;;;;18.36;96.00;100176.31;1745004;80;21113;-68
2022/09/02 07:14:16;;;;;;;13.15;7.67;;;;;;;18.31;91.14;100175.07;1721554;82;21065;-67
2022/09/02 07:16:49;;;;;;;13.93;7.90;;;;;;;18.29;89.96;100177.30;1675778;83;21086;-67
2022/09/02 07:19:19;;;;;;;16.15;8.33;;;;;;;18.39;89.29;100181.19;1750439;81;21090;-66
2022/09/02 07:21:46;;;;;;;14.55;7.58;;;;;;;18.44;87.85;100181.64;1745914;80;21114;-65
2022/09/02 07:24:14;;;;;;;12.70;8.20;;;;;;;18.53;88.14;100180.37;1751911;82;21546;-67
2022/09/02 07:26:41;;;;;;;12.15;7.70;;;;;;;18.61;86.88;100185.11;1707724;82;21050;-66
2022/09/02 07:29:10;;;;;;;17.57;8.43;;;;;;;18.73;84.27;100182.61;1715340;82;21035;-66
2022/09/02 07:31:38;;;;;;;16.62;10.00;;;;;;;18.97;84.50;100178.11;1751865;80;20991;-66
2022/09/02 07:34:06;;;;;;;14.73;8.30;;;;;;;19.17;82.06;100181.12;1749552;81;21501;-66
2022/09/02 07:36:37;;;;;;;15.55;10.00;;;;;;;19.27;73.33;100182.23;1744876;80;21034;-67
2022/09/02 07:39:04;;;;;;;19.95;10.45;;;;;;;19.38;77.50;100179.43;1750134;82;21075;-67
2022/09/02 07:41:32;;;;;;;13.03;8.68;;;;;;;19.51;74.80;100179.67;1750358;80;21125;-67
2022/09/02 07:43:59;;;;;;;13.70;9.03;;;;;;;19.43;71.88;100170.80;1750124;82;21124;-65
2022/09/02 07:46:30;;;;;;;14.53;8.70;;;;;;;19.52;71.66;100180.72;1746295;80;21125;-66
2022/09/02 07:48:59;;;;;;;13.05;8.53;;;;;;;19.65;72.01;100174.84;1748344;82;21081;-66
2022/09/02 07:51:26;;;;;;;18.90;8.80;;;;;;;19.93;71.78;100176.77;1746937;80;21042;-67
2022/09/02 07:53:52;;;;;;;17.17;10.03;;;;;;;20.13;68.72;100171.41;1741786;82;21663;-67
2022/09/02 07:56:19;;;;;;;18.32;10.80;;;;;;;19.97;66.70;100166.13;1748439;81;21146;-67
2022/09/02 07:58:46;;;;;;;15.50;9.15;;;;;;;19.89;67.27;100171.07;1721403;82;21046;-67
2022/09/02 08:01:13;;;;;;;14.18;7.45;;;;;;;19.88;65.76;100177.72;1749957;80;21607;-66
2022/09/02 08:03:40;;;;;;;10.63;5.42;;;;;;;20.01;67.86;100172.64;1746674;81;21492;-66
2022/09/02 08:06:07;;;;;;;7.55;4.60;;;;;;;20.01;67.86;100172.64;1743466;80;21105;-67
2022/09/02 08:08:34;;;;;;;7.08;3.05;;;;;;;20.21;60.21;100172.56;1751725;80;21086;-66
2022/09/02 08:11:02;;;;;;;3.98;2.30;;;;;;;20.21;60.21;100172.56;1751495;80;21038;-65
2022/09/02 08:13:29;;;;;;;4.47;2.33;;;;;;;20.20;55.69;100171.73;1754501;81;21035;-66
2022/09/02 08:15:55;;;;;;;3.35;1.77;;;;;;;20.17;54.59;100170.20;1735346;80;21079;-65
2022/09/02 08:18:22;;;;;;;5.78;2.80;;;;;;;20.11;53.58;100161.83;1742587;80;21522;-65
2022/09/02 08:20:49;;;;;;;4.87;2.55;;;;;;;20.11;53.58;100161.83;1752213;81;21557;-65
2022/09/02 08:23:15;;;;;;;4.90;2.65;;;;;;;20.15;53.93;100160.05;1752975;81;20998;-66
2022/09/02 08:25:42;;;;;;;5.15;1.72;;;;;;;20.39;55.26;100155.42;1757135;81;21082;-64
2022/09/02 08:28:08;;;;;;;3.37;1.82;;;;;;;20.62;53.35;100155.47;1744515;80;20973;-64
2022/09/02 08:30:34;;;;;;;3.33;1.87;;;;;;;20.65;52.68;100157.59;1757007;80;21584;-65
2022/09/02 08:33:01;;;;;;;7.60;2.40;;;;;;;20.69;51.18;100158.57;1747430;81;20993;-65
2022/09/02 08:35:28;;;;;;;5.15;2.33;;;;;;;20.58;51.35;100156.69;1757113;80;21034;-65
2022/09/02 08:37:58;;;;;;;4.30;2.20;;;;;;;20.38;50.24;100153.79;1744386;81;21010;-65
2022/09/02 08:40:37;;;;;;;3.27;1.87;;;;;;;20.25;53.30;100158.34;1755402;80;21036;-65
2022/09/02 08:43:08;;;;;;;4.55;2.72;;;;;;;20.41;53.95;100149.80;1728509;81;20955;-65
2022/09/02 08:45:36;;;;;;;5.58;2.80;;;;;;;20.57;52.06;100158.42;1753251;80;21046;-65
2022/09/02 08:48:26;;;;;;;7.45;2.72;;;;;;;20.48;51.60;100147.35;1748464;80;20986;-66
2022/09/02 08:50:53;;;;;;;5.42;3.20;;;;;;;20.31;50.91;100155.11;1755101;81;21069;-65
2022/09/02 08:53:41;;;;;;;6.70;2.75;;;;;;;20.14;52.07;100161.99;1691724;82;21011;-65
2022/09/02 08:56:09;;;;;;;6.15;3.10;;;;;;;20.08;51.96;100158.34;1692395;83;21046;-66
2022/09/02 08:58:39;;;;;;;6.22;2.90;;;;;;;19.82;52.74;100163.27;1712577;82;21478;-68
2022/09/02 09:01:31;;;;;;;8.48;2.83;;;;;;;19.61;53.06;100158.66;1693921;83;21066;-66
2022/09/02 09:04:21;;;;;;;6.62;2.35;;;;;;;19.40;54.00;100157.04;1690469;84;21064;-66
2022/09/02 09:07:13;;;;;;;6.62;2.77;;;;;;;19.26;53.87;100149.44;1660517;85;21076;-66
2022/09/02 09:10:12;;;;;;;5.70;2.60;;;;;;;19.18;54.36;100153.79;1666050;85;21089;-64
2022/09/02 09:12:50;;;;;;;6.30;2.95;;;;;;;19.25;54.71;100151.38;1698148;83;21053;-66
2022/09/02 09:15:43;;;;;;;5.37;2.40;;;;;;;19.44;54.21;100145.64;1686201;83;21640;-65
2022/09/02 09:18:17;;;;;;;6.45;2.83;;;;;;;19.61;57.97;100155.91;1686425;83;21581;-65
2022/09/02 09:20:44;;;;;;;6.28;2.35;;;;;;;19.80;53.14;100153.69;1686084;85;21142;-66
2022/09/02 09:23:32;;;;;;;5.17;2.40;;;;;;;19.82;55.07;100141.73;1674608;84;21537;-66
2022/09/02 09:26:09;;;;;;;4.45;2.67;;;;;;;19.89;51.47;100147.59;1678951;82;21059;-65
2022/09/02 09:28:48;;;;;;;6.20;2.70;;;;;;;19.74;51.34;100147.48;1687392;83;21120;-64
2022/09/02 09:31:17;;;;;;;6.45;3.35;;;;;;;19.79;51.76;100147.34;1693168;83;21102;-65
2022/09/02 09:34:08;;;;;;;6.03;2.77;;;;;;;19.87;52.69;100156.19;1665002;85;21633;-66
2022/09/02 09:36:50;;;;;;;8.68;3.12;;;;;;;19.86;52.76;100152.37;1672579;83;21056;-64
2022/09/02 09:39:30;;;;;;;5.25;2.70;;;;;;;19.74;51.71;100154.38;1669902;85;21064;-65
2022/09/02 09:42:02;;;;;;;5.42;2.92;;;;;;;19.46;51.45;100147.50;1675099;83;21055;-65
2022/09/02 09:44:44;;;;;;;6.28;3.50;;;;;;;19.31;53.95;100149.28;1680617;84;21680;-65
2022/09/02 09:47:24;;;;;;;7.15;3.85;;;;;;;19.32;53.73;100156.44;1665866;85;21530;-66
2022/09/02 09:50:10;;;;;;;6.10;3.22;;;;;;;19.24;52.62;100152.50;1697500;84;21126;-66
2022/09/02 09:52:38;;;;;;;9.28;5.80;;;;;;;19.23;51.44;100143.19;1672222;84;21110;-66
2022/09/02 09:55:18;;;;;;;11.33;7.78;;;;;;;19.20;52.10;100150.13;1674834;84;21607;-65
2022/09/02 09:57:48;;;;;;;14.78;7.28;;;;;;;19.11;51.77;100152.62;1678059;84;21038;-65
2022/09/02 10:00:27;;;;;;;14.53;7.80;;;;;;;18.91;52.93;100148.48;1683321;84;21130;-67
2022/09/02 10:02:55;;;;;;;13.38;7.65;;;;;;;18.89;55.74;100151.55;1687353;84;21276;-65
2022/09/02 10:05:37;;;;;;;12.05;6.90;;;;;;;19.02;58.17;100149.84;1681993;84;21422;-64
2022/09/02 10:08:21;;;;;;;14.10;8.58;;;;;;;19.12;55.03;100142.66;1698978;83;21025;-65
2022/09/02 10:11:04;;;;;;;13.13;7.50;;;;;;;19.18;53.99;100148.83;1703187;83;21105;-63
2022/09/02 10:13:33;;;;;;;14.13;8.98;;;;;;;19.10;54.61;100138.00;1701827;83;21031;-63
2022/09/02 10:16:30;;;;;;;16.70;9.68;;;;;;;19.14;55.15;100140.38;1693722;83;21702;-63
2022/09/02 10:19:08;;;;;;;;;;;;;;;19.13;52.47;100137.36;1683597;84;21066;-63
2022/09/02 10:21:55;;;;;;;18.62;11.38;;;;;;;19.09;55.42;100137.78;1691344;83;20574;-62
2022/09/02 10:24:35;;;;;;;19.15;13.15;;;;;;;19.11;52.00;100141.58;1699044;83;21031;-63
2022/09/02 10:27:02;;;;;;;22.00;13.78;;;;;;;19.18;53.39;100136.41;1658428;83;21062;-63
2022/09/02 10:29:34;;;;;;;23.60;13.88;;;;;;;19.31;55.47;100130.77;1708482;82;21079;-63
2022/09/02 10:32:16;;;;;;;20.17;13.75;;;;;;;19.49;55.25;100134.99;1711566;83;21041;-63
2022/09/02 10:35:10;;;;;;;20.88;13.48;;;;;;;19.63;53.69;100132.91;1687389;84;21017;-64
2022/09/02 10:37:51;;;;;;;19.42;13.18;;;;;;;19.59;50.62;100129.98;1670578;85;21004;-64
2022/09/02 10:40:26;;;;;;;27.95;17.35;;;;;;;19.58;52.28;100131.14;1731328;80;21106;-63
2022/09/02 10:43:06;;;;;;;21.80;13.40;;;;;;;19.63;50.65;100130.15;1742439;81;21057;-63
2022/09/02 10:45:46;;;;;;;21.07;13.53;;;;;;;19.61;50.24;100136.58;1745808;80;21546;-64
2022/09/02 10:48:27;;;;;;;22.17;14.68;;;;;;;19.48;49.67;100137.53;1735862;81;21339;-64
2022/09/02 10:51:28;;;;;;;22.42;14.15;;;;;;;19.34;50.21;100141.77;1721827;82;21110;-64
2022/09/02 10:54:29;;;;;;;22.25;15.13;;;;;;;19.25;52.34;100138.96;1714987;83;21040;-64
2022/09/02 10:57:10;;;;;;;20.48;14.00;;;;;;;19.25;50.21;100134.82;1694877;82;22009;-63
2022/09/02 10:59:57;;;;;;;23.07;14.85;;;;;;;19.21;49.77;100127.48;1658278;83;22095;-63
2022/09/02 11:02:36;;;;;;;21.30;13.80;;;;;;;19.26;49.30;100129.56;1665084;84;21087;-65
2022/09/02 11:05:15;;;;;;;20.05;13.53;;;;;;;19.34;48.87;100131.51;1659706;85;21167;-64
2022/09/02 11:07:53;;;;;;;18.42;12.45;;;;;;;19.31;50.27;100136.86;1672934;84;21452;-63
2022/09/02 11:10:30;;;;;;;21.62;11.25;;;;;;;19.37;50.12;100134.22;1680752;84;21534;-63
2022/09/02 11:13:05;;;;;;;19.90;11.88;;;;;;;19.44;48.75;100135.16;1677899;84;21368;-64
2022/09/02 11:15:43;;;;;;;23.85;13.83;;;;;;;19.31;51.86;100138.23;1661949;85;21139;-63
2022/09/02 11:18:21;;;;;;;18.55;12.10;;;;;;;19.35;51.66;100141.42;1672443;84;21558;-63
2022/09/02 11:21:02;;;;;;;20.40;12.85;;;;;;;19.35;49.81;100137.28;1673879;84;21135;-62
2022/09/02 11:23:39;;;;;;;18.37;12.00;;;;;;;19.31;50.33;100135.48;1651902;85;21118;-63
2022/09/02 11:26:26;;;;;;;;;;;;;;;19.32;49.50;100131.59;1649737;84;21110;-63
2022/09/02 11:29:36;;;;;;;18.33;11.50;;;;;;;19.35;52.48;100144.19;1650674;85;20130;-64
2022/09/02 11:32:23;;;;;;;18.45;12.10;;;;;;;19.42;51.46;100136.84;1667494;84;21542;-63
2022/09/02 11:34:51;;;;;;;18.42;11.63;;;;;;;19.46;48.60;100128.17;1680117;85;21081;-64
2022/09/02 11:37:44;;;;;;;14.93;9.68;;;;;;;19.40;48.94;100136.34;1696186;84;21564;-65
2022/09/02 11:40:19;;;;;;;12.88;8.70;;;;;;;19.37;47.93;100126.75;1669114;84;21067;-64